sensor_id;sensor_type;location;lat;lon;timestamp;temperature;humidity
15286;DHT22;7744;52.172;10.668;2023-03-25T00:01:00;8.90;1.00
15286;DHT22;7744;52.172;10.668;2023-03-25T00:03:28;8.90;1.00
15286;DHT22;7744;52.172;10.668;2023-03-25T00:05:55;9.00;1.00
15286;DHT22;7744;52.172;10.668;2023-03-25T00:08:22;9.00;1.00
15286;DHT22;7744;52.172;10.668;2023-03-25T00:10:53;9.10;1.00
15286;DHT22;7744;52.172;10.668;2023-03-25T00:13:19;9.20;1.00
15286;DHT22;7744;52.172;10.668;2023-03-25T00:15:52;9.20;1.00
15286;DHT22;7744;52.172;10.668;2023-03-25T00:18:23;9.30;1.00
15286;DHT22;7744;52.172;10.668;2023-03-25T00:20:50;9.20;1.00
15286;DHT22;7744;52.172;10.668;2023-03-25T00:23:17;9.30;1.00
15286;DHT22;7744;52.172;10.668;2023-03-25T00:25:42;9.30;1.00
15286;DHT22;7744;52.172;10.668;2023-03-25T00:28:10;9.20;1.00
15286;DHT22;7744;52.172;10.668;2023-03-25T00:30:37;9.30;1.00
15286;DHT22;7744;52.172;10.668;2023-03-25T00:33:03;9.40;1.00
15286;DHT22;7744;52.172;10.668;2023-03-25T00:35:28;9.50;1.00
15286;DHT22;7744;52.172;10.668;2023-03-25T00:37:54;9.60;1.00
15286;DHT22;7744;52.172;10.668;2023-03-25T00:40:28;9.60;1.00
15286;DHT22;7744;52.172;10.668;2023-03-25T00:42:55;9.60;1.00
15286;DHT22;7744;52.172;10.668;2023-03-25T00:45:21;9.60;1.00
15286;DHT22;7744;52.172;10.668;2023-03-25T00:47:47;9.60;1.00
15286;DHT22;7744;52.172;10.668;2023-03-25T00:50:13;9.60;1.00
15286;DHT22;7744;52.172;10.668;2023-03-25T00:52:39;9.60;1.00
15286;DHT22;7744;52.172;10.668;2023-03-25T00:55:05;9.60;1.00
15286;DHT22;7744;52.172;10.668;2023-03-25T00:57:31;9.60;1.00
15286;DHT22;7744;52.172;10.668;2023-03-25T00:59:57;9.60;1.00
15286;DHT22;7744;52.172;10.668;2023-03-25T01:02:23;9.60;1.00
15286;DHT22;7744;52.172;10.668;2023-03-25T01:04:48;9.70;1.00
15286;DHT22;7744;52.172;10.668;2023-03-25T01:07:16;9.60;1.00
15286;DHT22;7744;52.172;10.668;2023-03-25T01:09:42;9.60;1.00
15286;DHT22;7744;52.172;10.668;2023-03-25T01:12:11;9.50;1.00
15286;DHT22;7744;52.172;10.668;2023-03-25T01:14:37;9.50;1.00
15286;DHT22;7744;52.172;10.668;2023-03-25T01:17:02;9.50;1.00
15286;DHT22;7744;52.172;10.668;2023-03-25T01:19:28;9.40;1.00
15286;DHT22;7744;52.172;10.668;2023-03-25T01:21:54;9.40;1.00
15286;DHT22;7744;52.172;10.668;2023-03-25T01:24:19;9.40;1.00
15286;DHT22;7744;52.172;10.668;2023-03-25T01:26:45;9.40;1.00
15286;DHT22;7744;52.172;10.668;2023-03-25T01:29:13;9.40;1.00
15286;DHT22;7744;52.172;10.668;2023-03-25T01:31:39;9.40;1.00
15286;DHT22;7744;52.172;10.668;2023-03-25T01:34:05;9.40;1.00
15286;DHT22;7744;52.172;10.668;2023-03-25T01:36:32;9.40;1.00
15286;DHT22;7744;52.172;10.668;2023-03-25T01:38:58;9.30;1.00
15286;DHT22;7744;52.172;10.668;2023-03-25T01:41:26;9.30;1.00
15286;DHT22;7744;52.172;10.668;2023-03-25T01:44:07;9.40;1.00
15286;DHT22;7744;52.172;10.668;2023-03-25T01:46:36;9.40;1.00
15286;DHT22;7744;52.172;10.668;2023-03-25T01:49:05;9.30;1.00
15286;DHT22;7744;52.172;10.668;2023-03-25T01:51:35;9.30;1.00
15286;DHT22;7744;52.172;10.668;2023-03-25T01:54:03;9.40;1.00
15286;DHT22;7744;52.172;10.668;2023-03-25T01:56:40;9.50;1.00
15286;DHT22;7744;52.172;10.668;2023-03-25T01:59:08;9.40;1.00
15286;DHT22;7744;52.172;10.668;2023-03-25T02:01:36;9.40;1.00
15286;DHT22;7744;52.172;10.668;2023-03-25T02:04:02;9.40;1.00
15286;DHT22;7744;52.172;10.668;2023-03-25T02:06:45;9.40;1.00
15286;DHT22;7744;52.172;10.668;2023-03-25T02:09:14;9.40;1.00
15286;DHT22;7744;52.172;10.668;2023-03-25T02:11:41;9.40;1.00
15286;DHT22;7744;52.172;10.668;2023-03-25T02:14:13;9.50;1.00
15286;DHT22;7744;52.172;10.668;2023-03-25T02:17:01;9.50;1.00
15286;DHT22;7744;52.172;10.668;2023-03-25T02:31:13;9.60;1.00
15286;DHT22;7744;52.172;10.668;2023-03-25T02:42:39;9.60;1.00
15286;DHT22;7744;52.172;10.668;2023-03-25T02:45:20;9.60;1.00
15286;DHT22;7744;52.172;10.668;2023-03-25T02:47:52;9.00;1.00
15286;DHT22;7744;52.172;10.668;2023-03-25T02:53:00;9.60;1.00
15286;DHT22;7744;52.172;10.668;2023-03-25T02:55:28;9.60;1.00
15286;DHT22;7744;52.172;10.668;2023-03-25T02:57:57;9.50;1.00
15286;DHT22;7744;52.172;10.668;2023-03-25T03:00:26;9.50;1.00
15286;DHT22;7744;52.172;10.668;2023-03-25T03:02:58;9.50;1.00
15286;DHT22;7744;52.172;10.668;2023-03-25T03:05:38;9.50;1.00
15286;DHT22;7744;52.172;10.668;2023-03-25T03:08:26;9.50;1.00
15286;DHT22;7744;52.172;10.668;2023-03-25T03:11:18;9.40;1.00
15286;DHT22;7744;52.172;10.668;2023-03-25T03:13:58;9.40;1.00
15286;DHT22;7744;52.172;10.668;2023-03-25T03:19:51;9.40;1.00
15286;DHT22;7744;52.172;10.668;2023-03-25T03:22:44;9.30;1.00
15286;DHT22;7744;52.172;10.668;2023-03-25T03:25:35;9.30;1.00
15286;DHT22;7744;52.172;10.668;2023-03-25T03:28:17;9.20;1.00
15286;DHT22;7744;52.172;10.668;2023-03-25T03:33:39;9.20;1.00
15286;DHT22;7744;52.172;10.668;2023-03-25T03:36:09;9.20;1.00
15286;DHT22;7744;52.172;10.668;2023-03-25T03:38:40;9.30;1.00
15286;DHT22;7744;52.172;10.668;2023-03-25T03:41:10;9.20;1.00
15286;DHT22;7744;52.172;10.668;2023-03-25T03:43:45;9.20;1.00
15286;DHT22;7744;52.172;10.668;2023-03-25T03:46:18;9.10;1.00
15286;DHT22;7744;52.172;10.668;2023-03-25T03:48:47;9.10;1.00
15286;DHT22;7744;52.172;10.668;2023-03-25T03:51:24;9.00;1.00
15286;DHT22;7744;52.172;10.668;2023-03-25T03:53:55;9.00;1.00
15286;DHT22;7744;52.172;10.668;2023-03-25T03:56:37;8.90;1.00
15286;DHT22;7744;52.172;10.668;2023-03-25T03:59:10;8.90;1.00
15286;DHT22;7744;52.172;10.668;2023-03-25T04:01:44;8.80;1.00
15286;DHT22;7744;52.172;10.668;2023-03-25T04:04:14;8.80;1.00
15286;DHT22;7744;52.172;10.668;2023-03-25T04:07:03;8.80;1.00
15286;DHT22;7744;52.172;10.668;2023-03-25T04:09:51;8.70;1.00
15286;DHT22;7744;52.172;10.668;2023-03-25T04:12:26;8.70;1.00
15286;DHT22;7744;52.172;10.668;2023-03-25T04:14:54;8.60;1.00
15286;DHT22;7744;52.172;10.668;2023-03-25T04:17:20;8.60;1.00
15286;DHT22;7744;52.172;10.668;2023-03-25T04:19:46;8.60;1.00
15286;DHT22;7744;52.172;10.668;2023-03-25T04:22:15;8.50;1.00
15286;DHT22;7744;52.172;10.668;2023-03-25T04:24:41;8.50;1.00
15286;DHT22;7744;52.172;10.668;2023-03-25T04:27:09;8.50;1.00
15286;DHT22;7744;52.172;10.668;2023-03-25T04:29:38;8.40;1.00
15286;DHT22;7744;52.172;10.668;2023-03-25T04:32:05;8.40;1.00
15286;DHT22;7744;52.172;10.668;2023-03-25T04:34:32;8.40;1.00
15286;DHT22;7744;52.172;10.668;2023-03-25T04:36:58;8.40;1.00
15286;DHT22;7744;52.172;10.668;2023-03-25T04:39:23;8.40;1.00
15286;DHT22;7744;52.172;10.668;2023-03-25T04:41:51;8.40;1.00
15286;DHT22;7744;52.172;10.668;2023-03-25T04:44:18;8.40;1.00
15286;DHT22;7744;52.172;10.668;2023-03-25T04:46:45;8.40;1.00
15286;DHT22;7744;52.172;10.668;2023-03-25T04:49:22;8.50;1.00
15286;DHT22;7744;52.172;10.668;2023-03-25T04:51:49;8.50;1.00
15286;DHT22;7744;52.172;10.668;2023-03-25T04:54:19;8.40;1.00
15286;DHT22;7744;52.172;10.668;2023-03-25T04:56:46;8.40;1.00
15286;DHT22;7744;52.172;10.668;2023-03-25T04:59:14;8.40;1.00
15286;DHT22;7744;52.172;10.668;2023-03-25T05:01:40;8.40;1.00
15286;DHT22;7744;52.172;10.668;2023-03-25T05:04:11;8.40;1.00
15286;DHT22;7744;52.172;10.668;2023-03-25T05:06:41;8.40;1.00
15286;DHT22;7744;52.172;10.668;2023-03-25T05:09:13;8.50;1.00
15286;DHT22;7744;52.172;10.668;2023-03-25T05:11:41;8.60;1.00
15286;DHT22;7744;52.172;10.668;2023-03-25T05:14:11;8.50;1.00
15286;DHT22;7744;52.172;10.668;2023-03-25T05:16:38;8.60;1.00
15286;DHT22;7744;52.172;10.668;2023-03-25T05:19:04;8.60;1.00
15286;DHT22;7744;52.172;10.668;2023-03-25T05:21:31;8.60;1.00
15286;DHT22;7744;52.172;10.668;2023-03-25T05:23:57;8.60;1.00
15286;DHT22;7744;52.172;10.668;2023-03-25T05:26:23;8.50;1.00
15286;DHT22;7744;52.172;10.668;2023-03-25T05:28:49;8.50;1.00
15286;DHT22;7744;52.172;10.668;2023-03-25T05:31:16;8.50;1.00
15286;DHT22;7744;52.172;10.668;2023-03-25T05:33:42;8.50;1.00
15286;DHT22;7744;52.172;10.668;2023-03-25T05:36:09;8.50;1.00
15286;DHT22;7744;52.172;10.668;2023-03-25T05:38:35;8.50;1.00
15286;DHT22;7744;52.172;10.668;2023-03-25T05:41:01;8.60;1.00
15286;DHT22;7744;52.172;10.668;2023-03-25T05:43:27;8.70;1.00
15286;DHT22;7744;52.172;10.668;2023-03-25T05:45:52;8.70;1.00
15286;DHT22;7744;52.172;10.668;2023-03-25T05:48:18;8.80;1.00
15286;DHT22;7744;52.172;10.668;2023-03-25T05:50:43;8.80;1.00
15286;DHT22;7744;52.172;10.668;2023-03-25T05:53:13;8.90;1.00
15286;DHT22;7744;52.172;10.668;2023-03-25T05:55:42;8.90;1.00
15286;DHT22;7744;52.172;10.668;2023-03-25T05:58:08;9.00;1.00
15286;DHT22;7744;52.172;10.668;2023-03-25T06:00:33;9.00;1.00
15286;DHT22;7744;52.172;10.668;2023-03-25T06:02:59;9.10;1.00
15286;DHT22;7744;52.172;10.668;2023-03-25T06:05:25;9.10;1.00
15286;DHT22;7744;52.172;10.668;2023-03-25T06:07:53;9.10;1.00
15286;DHT22;7744;52.172;10.668;2023-03-25T06:10:21;9.10;1.00
15286;DHT22;7744;52.172;10.668;2023-03-25T06:12:47;9.10;1.00
15286;DHT22;7744;52.172;10.668;2023-03-25T06:15:17;9.10;1.00
15286;DHT22;7744;52.172;10.668;2023-03-25T06:17:43;9.00;1.00
15286;DHT22;7744;52.172;10.668;2023-03-25T06:20:12;9.10;1.00
15286;DHT22;7744;52.172;10.668;2023-03-25T06:22:39;9.00;1.00
15286;DHT22;7744;52.172;10.668;2023-03-25T06:25:07;9.00;1.00
15286;DHT22;7744;52.172;10.668;2023-03-25T06:27:33;9.00;1.00
15286;DHT22;7744;52.172;10.668;2023-03-25T06:30:00;9.00;1.00
15286;DHT22;7744;52.172;10.668;2023-03-25T06:32:26;9.10;1.00
15286;DHT22;7744;52.172;10.668;2023-03-25T06:34:51;9.20;1.00
15286;DHT22;7744;52.172;10.668;2023-03-25T06:37:17;9.10;1.00
15286;DHT22;7744;52.172;10.668;2023-03-25T06:39:42;9.20;1.00
15286;DHT22;7744;52.172;10.668;2023-03-25T06:42:14;9.40;1.00
15286;DHT22;7744;52.172;10.668;2023-03-25T06:44:39;9.40;1.00
15286;DHT22;7744;52.172;10.668;2023-03-25T06:47:05;9.50;1.00
15286;DHT22;7744;52.172;10.668;2023-03-25T06:49:31;9.50;1.00
15286;DHT22;7744;52.172;10.668;2023-03-25T06:51:56;9.50;1.00
15286;DHT22;7744;52.172;10.668;2023-03-25T06:54:23;9.60;1.00
15286;DHT22;7744;52.172;10.668;2023-03-25T06:56:48;9.60;1.00
15286;DHT22;7744;52.172;10.668;2023-03-25T06:59:14;9.50;1.00
15286;DHT22;7744;52.172;10.668;2023-03-25T07:01:39;9.60;1.00
15286;DHT22;7744;52.172;10.668;2023-03-25T07:04:05;9.50;1.00
15286;DHT22;7744;52.172;10.668;2023-03-25T07:06:31;9.70;1.00
15286;DHT22;7744;52.172;10.668;2023-03-25T07:08:56;9.80;1.00
15286;DHT22;7744;52.172;10.668;2023-03-25T07:11:25;9.70;1.00
15286;DHT22;7744;52.172;10.668;2023-03-25T07:13:52;9.70;1.00
15286;DHT22;7744;52.172;10.668;2023-03-25T07:16:19;9.60;1.00
15286;DHT22;7744;52.172;10.668;2023-03-25T07:18:45;9.60;1.00
15286;DHT22;7744;52.172;10.668;2023-03-25T07:21:11;9.60;1.00
15286;DHT22;7744;52.172;10.668;2023-03-25T07:23:37;9.50;1.00
15286;DHT22;7744;52.172;10.668;2023-03-25T07:26:02;9.50;1.00
15286;DHT22;7744;52.172;10.668;2023-03-25T07:28:28;9.50;1.00
15286;DHT22;7744;52.172;10.668;2023-03-25T07:30:53;9.60;1.00
15286;DHT22;7744;52.172;10.668;2023-03-25T07:33:19;9.60;1.00
15286;DHT22;7744;52.172;10.668;2023-03-25T07:35:45;9.60;1.00
15286;DHT22;7744;52.172;10.668;2023-03-25T07:38:11;9.60;1.00
15286;DHT22;7744;52.172;10.668;2023-03-25T07:40:37;9.60;1.00
15286;DHT22;7744;52.172;10.668;2023-03-25T07:43:02;9.70;1.00
15286;DHT22;7744;52.172;10.668;2023-03-25T07:45:28;9.90;1.00
15286;DHT22;7744;52.172;10.668;2023-03-25T07:47:53;10.20;1.00
15286;DHT22;7744;52.172;10.668;2023-03-25T07:50:21;10.60;1.00
15286;DHT22;7744;52.172;10.668;2023-03-25T07:52:46;10.80;1.00
15286;DHT22;7744;52.172;10.668;2023-03-25T07:55:13;10.70;1.00
15286;DHT22;7744;52.172;10.668;2023-03-25T07:57:42;10.60;1.00
15286;DHT22;7744;52.172;10.668;2023-03-25T08:00:09;10.60;1.00
15286;DHT22;7744;52.172;10.668;2023-03-25T08:02:35;10.50;1.00
15286;DHT22;7744;52.172;10.668;2023-03-25T08:05:01;10.30;1.00
15286;DHT22;7744;52.172;10.668;2023-03-25T08:07:27;10.10;1.00
15286;DHT22;7744;52.172;10.668;2023-03-25T08:09:53;10.00;1.00
15286;DHT22;7744;52.172;10.668;2023-03-25T08:12:19;10.00;1.00
15286;DHT22;7744;52.172;10.668;2023-03-25T08:14:45;10.20;1.00
15286;DHT22;7744;52.172;10.668;2023-03-25T08:17:10;10.30;1.00
15286;DHT22;7744;52.172;10.668;2023-03-25T08:19:36;10.30;1.00
15286;DHT22;7744;52.172;10.668;2023-03-25T08:22:02;10.20;1.00
15286;DHT22;7744;52.172;10.668;2023-03-25T08:24:27;10.30;1.00
15286;DHT22;7744;52.172;10.668;2023-03-25T08:26:54;10.40;1.00
15286;DHT22;7744;52.172;10.668;2023-03-25T08:29:20;10.50;1.00
15286;DHT22;7744;52.172;10.668;2023-03-25T08:31:46;10.60;1.00
15286;DHT22;7744;52.172;10.668;2023-03-25T08:34:17;10.80;1.00
15286;DHT22;7744;52.172;10.668;2023-03-25T08:36:42;10.90;1.00
15286;DHT22;7744;52.172;10.668;2023-03-25T08:39:08;10.80;1.00
15286;DHT22;7744;52.172;10.668;2023-03-25T08:41:36;10.80;1.00
15286;DHT22;7744;52.172;10.668;2023-03-25T08:44:03;10.70;1.00
15286;DHT22;7744;52.172;10.668;2023-03-25T08:46:29;10.70;1.00
15286;DHT22;7744;52.172;10.668;2023-03-25T08:48:55;10.70;1.00
15286;DHT22;7744;52.172;10.668;2023-03-25T08:51:20;10.90;1.00
15286;DHT22;7744;52.172;10.668;2023-03-25T08:53:46;11.10;1.00
15286;DHT22;7744;52.172;10.668;2023-03-25T08:56:11;11.00;1.00
15286;DHT22;7744;52.172;10.668;2023-03-25T08:58:37;10.80;1.00
15286;DHT22;7744;52.172;10.668;2023-03-25T09:01:03;10.80;1.00
15286;DHT22;7744;52.172;10.668;2023-03-25T09:03:29;10.90;1.00
15286;DHT22;7744;52.172;10.668;2023-03-25T09:05:54;11.10;1.00
15286;DHT22;7744;52.172;10.668;2023-03-25T09:08:20;11.10;1.00
15286;DHT22;7744;52.172;10.668;2023-03-25T09:10:46;11.40;1.00
15286;DHT22;7744;52.172;10.668;2023-03-25T09:13:11;11.50;1.00
15286;DHT22;7744;52.172;10.668;2023-03-25T09:15:37;11.30;1.00
15286;DHT22;7744;52.172;10.668;2023-03-25T09:18:03;11.40;1.00
15286;DHT22;7744;52.172;10.668;2023-03-25T09:20:30;11.40;1.00
15286;DHT22;7744;52.172;10.668;2023-03-25T09:22:56;11.40;1.00
15286;DHT22;7744;52.172;10.668;2023-03-25T09:25:21;11.50;1.00
15286;DHT22;7744;52.172;10.668;2023-03-25T09:27:47;11.70;1.00
15286;DHT22;7744;52.172;10.668;2023-03-25T09:30:13;11.80;1.00
15286;DHT22;7744;52.172;10.668;2023-03-25T09:32:40;11.70;1.00
15286;DHT22;7744;52.172;10.668;2023-03-25T09:35:06;11.60;1.00
15286;DHT22;7744;52.172;10.668;2023-03-25T09:37:32;11.50;1.00
15286;DHT22;7744;52.172;10.668;2023-03-25T09:39:58;11.30;1.00
15286;DHT22;7744;52.172;10.668;2023-03-25T09:45:27;11.00;1.00
15286;DHT22;7744;52.172;10.668;2023-03-25T09:48:23;10.80;1.00
15286;DHT22;7744;52.172;10.668;2023-03-25T09:50:50;11.40;1.00
15286;DHT22;7744;52.172;10.668;2023-03-25T09:55:48;10.20;1.00
15286;DHT22;7744;52.172;10.668;2023-03-25T10:03:50;10.00;1.00
15286;DHT22;7744;52.172;10.668;2023-03-25T10:06:19;10.00;1.00
15286;DHT22;7744;52.172;10.668;2023-03-25T10:09:18;10.00;1.00
15286;DHT22;7744;52.172;10.668;2023-03-25T10:17:38;10.40;1.00
15286;DHT22;7744;52.172;10.668;2023-03-25T10:20:19;10.20;1.00
15286;DHT22;7744;52.172;10.668;2023-03-25T10:25:44;10.00;1.00
15286;DHT22;7744;52.172;10.668;2023-03-25T10:28:16;10.20;1.00
15286;DHT22;7744;52.172;10.668;2023-03-25T10:30:46;10.40;1.00
15286;DHT22;7744;52.172;10.668;2023-03-25T10:33:34;10.40;1.00
15286;DHT22;7744;52.172;10.668;2023-03-25T10:36:02;10.40;1.00
15286;DHT22;7744;52.172;10.668;2023-03-25T10:38:31;10.40;1.00
15286;DHT22;7744;52.172;10.668;2023-03-25T10:41:28;10.40;1.00
15286;DHT22;7744;52.172;10.668;2023-03-25T10:43:55;10.40;1.00
15286;DHT22;7744;52.172;10.668;2023-03-25T10:47:06;10.40;1.00
15286;DHT22;7744;52.172;10.668;2023-03-25T10:49:28;10.50;1.00
15286;DHT22;7744;52.172;10.668;2023-03-25T10:51:55;10.50;1.00
15286;DHT22;7744;52.172;10.668;2023-03-25T10:54:29;10.40;1.00
15286;DHT22;7744;52.172;10.668;2023-03-25T10:57:00;10.40;1.00
15286;DHT22;7744;52.172;10.668;2023-03-25T10:59:43;10.50;1.00
15286;DHT22;7744;52.172;10.668;2023-03-25T11:04:41;10.70;1.00
15286;DHT22;7744;52.172;10.668;2023-03-25T11:07:17;10.80;1.00
15286;DHT22;7744;52.172;10.668;2023-03-25T11:09:44;11.10;1.00
15286;DHT22;7744;52.172;10.668;2023-03-25T11:12:09;11.50;1.00
15286;DHT22;7744;52.172;10.668;2023-03-25T11:14:37;11.70;1.00
15286;DHT22;7744;52.172;10.668;2023-03-25T11:17:11;11.70;1.00
15286;DHT22;7744;52.172;10.668;2023-03-25T11:19:46;11.50;1.00
15286;DHT22;7744;52.172;10.668;2023-03-25T11:22:24;11.40;1.00
15286;DHT22;7744;52.172;10.668;2023-03-25T11:24:51;11.40;1.00
15286;DHT22;7744;52.172;10.668;2023-03-25T11:27:24;11.40;1.00
15286;DHT22;7744;52.172;10.668;2023-03-25T11:29:54;11.50;1.00
15286;DHT22;7744;52.172;10.668;2023-03-25T11:32:23;11.50;1.00
15286;DHT22;7744;52.172;10.668;2023-03-25T11:34:55;11.40;1.00
15286;DHT22;7744;52.172;10.668;2023-03-25T11:37:22;11.30;1.00
15286;DHT22;7744;52.172;10.668;2023-03-25T11:39:53;11.20;1.00
15286;DHT22;7744;52.172;10.668;2023-03-25T11:42:40;11.00;1.00
15286;DHT22;7744;52.172;10.668;2023-03-25T11:45:25;11.10;1.00
15286;DHT22;7744;52.172;10.668;2023-03-25T11:47:52;11.40;1.00
15286;DHT22;7744;52.172;10.668;2023-03-25T11:50:24;11.60;1.00
15286;DHT22;7744;52.172;10.668;2023-03-25T11:52:59;11.70;1.00
15286;DHT22;7744;52.172;10.668;2023-03-25T11:55:31;11.80;1.00
15286;DHT22;7744;52.172;10.668;2023-03-25T11:58:01;12.00;1.00
15286;DHT22;7744;52.172;10.668;2023-03-25T12:00:35;12.10;1.00
15286;DHT22;7744;52.172;10.668;2023-03-25T12:03:05;12.30;1.00
15286;DHT22;7744;52.172;10.668;2023-03-25T12:05:40;12.30;1.00
15286;DHT22;7744;52.172;10.668;2023-03-25T12:08:15;12.40;1.00
15286;DHT22;7744;52.172;10.668;2023-03-25T12:10:59;12.40;1.00
15286;DHT22;7744;52.172;10.668;2023-03-25T12:13:54;12.50;1.00
15286;DHT22;7744;52.172;10.668;2023-03-25T12:21:45;12.00;1.00
15286;DHT22;7744;52.172;10.668;2023-03-25T12:30:01;12.40;1.00
15286;DHT22;7744;52.172;10.668;2023-03-25T12:32:37;12.40;1.00
15286;DHT22;7744;52.172;10.668;2023-03-25T12:35:40;12.40;1.00
